sim
Sign-in with your pilot id or email,
or register
Callsign
Passwort

Schedule Details

Flight Number: DLH2724 (2)
Departure: Munich Airport (EDDM) at 16:45
Arrival: Berlin Tegel Airport (EDDT) at 17:55
Route: Lufthansa Passenger Schedule. Enter filed route here before submitting Pirep.

Weather Information
Getting current METAR information for EDDM 231220Z VRB03KT 9999 FEW012 SCT030 BKN043 18/15 Q1010 TEMPO 4000 SHRA BKN020CB
Getting current METAR information for EDDT 231220Z 24009KT 210V290 CAVOK 27/12 Q1004 NOSIG

Schedule Frequency

Route Map